Time;durP1;ratioP1;P1;durP2;ratioP2;P2;SDS_P1;SDS_P2;PMS_P1;PMS_P2;Temp;Humidity;BMP_temperature;BMP_pressure;BME280_temperature;BME280_humidity;BME280_pressure;Samples;Min_cycle;Max_cycle;Signal;HPM_P1;HPM_P2
2023/09/06 00:01:33;;;;;;;8.98;7.88;;;19.40;96.70;;;;;;5034066;28;20315;-78
2023/09/06 00:03:59;;;;;;;11.32;7.82;;;19.30;96.70;;;;;;5045483;28;20055;-80
2023/09/06 00:06:25;;;;;;;7.90;7.10;;;19.30;96.80;;;;;;5017843;28;20044;-84
2023/09/06 00:08:51;;;;;;;8.00;7.00;;;19.20;96.80;;;;;;5031539;28;20100;-84
2023/09/06 00:11:16;;;;;;;10.13;8.07;;;19.20;96.80;;;;;;5015214;28;20040;-81
2023/09/06 00:13:42;;;;;;;12.30;8.77;;;19.20;96.90;;;;;;5030645;28;20093;-81
2023/09/06 00:16:08;;;;;;;11.05;8.15;;;19.20;97.00;;;;;;5014160;28;20212;-80
2023/09/06 00:18:35;;;;;;;10.07;8.35;;;19.10;97.10;;;;;;5029599;28;20052;-78
2023/09/06 00:21:01;;;;;;;10.57;8.55;;;19.10;97.20;;;;;;5031332;28;20423;-77
2023/09/06 00:23:27;;;;;;;9.95;8.48;;;19.10;97.30;;;;;;5029185;28;20057;-76
2023/09/06 00:25:56;;;;;;;10.48;9.27;;;19.00;97.40;;;;;;5022998;28;20563;-78
2023/09/06 00:28:25;;;;;;;9.63;8.10;;;19.00;97.50;;;;;;5031048;28;20051;-80
2023/09/06 00:30:51;;;;;;;9.70;8.15;;;19.00;97.60;;;;;;5027781;28;20060;-79
2023/09/06 00:33:17;;;;;;;9.77;8.50;;;18.90;97.70;;;;;;5028027;28;20439;-82
2023/09/06 00:35:43;;;;;;;11.63;8.35;;;18.90;97.80;;;;;;5031060;28;20044;-81
2023/09/06 00:38:10;;;;;;;10.95;8.88;;;19.20;98.00;;;;;;5030253;28;20087;-80
2023/09/06 00:40:37;;;;;;;12.60;9.10;;;18.80;98.00;;;;;;5031258;28;20613;-80
2023/09/06 00:43:07;;;;;;;10.10;8.30;;;18.80;98.10;;;;;;5027339;28;20045;-79
2023/09/06 00:45:44;;;;;;;10.35;8.43;;;18.80;98.20;;;;;;5023764;28;20957;-81
2023/09/06 00:48:19;;;;;;;10.35;8.85;;;18.80;98.40;;;;;;5039569;28;20451;-79
2023/09/06 00:50:51;;;;;;;9.93;8.50;;;18.80;98.50;;;;;;5007917;28;20122;-80
2023/09/06 00:53:18;;;;;;;9.80;8.80;;;18.70;98.50;;;;;;5029283;28;20163;-80
2023/09/06 00:55:44;;;;;;;10.15;8.15;;;18.70;98.60;;;;;;5026930;28;20044;-80
2023/09/06 00:58:15;;;;;;;10.23;8.32;;;18.70;98.70;;;;;;5026811;28;20056;-80
2023/09/06 01:00:46;;;;;;;11.00;9.25;;;18.70;98.80;;;;;;5025201;28;20056;-81
2023/09/06 01:03:13;;;;;;;9.55;8.00;;;18.60;98.90;;;;;;5025526;28;21009;-81
2023/09/06 01:05:58;;;;;;;10.65;8.35;;;18.60;98.90;;;;;;5014494;28;20059;-82
2023/09/06 01:08:34;;;;;;;12.27;9.10;;;18.50;99.00;;;;;;5005807;28;20390;-81
2023/09/06 01:11:21;;;;;;;11.10;8.25;;;18.50;99.00;;;;;;5030727;28;20360;-82
2023/09/06 01:13:49;;;;;;;10.75;9.50;;;18.50;99.10;;;;;;5026876;28;20052;-81
2023/09/06 01:16:48;;;;;;;12.38;9.38;;;18.50;99.10;;;;;;5028373;28;20060;-83
2023/09/06 01:19:18;;;;;;;11.05;9.52;;;18.40;99.10;;;;;;5022149;28;22340;-82
2023/09/06 01:21:58;;;;;;;10.95;8.43;;;18.40;99.10;;;;;;5027146;28;20051;-81
2023/09/06 01:24:25;;;;;;;10.55;9.45;;;18.40;99.20;;;;;;5028986;28;20052;-82
2023/09/06 01:26:52;;;;;;;10.50;8.48;;;18.30;99.20;;;;;;5025629;28;20052;-82
2023/09/06 01:29:18;;;;;;;11.88;8.90;;;18.30;99.30;;;;;;5031126;28;21774;-82
2023/09/06 01:31:44;;;;;;;10.35;8.82;;;18.30;99.30;;;;;;5022593;28;20150;-82
2023/09/06 01:34:10;;;;;;;11.38;9.55;;;18.30;99.40;;;;;;5012494;28;20067;-84
2023/09/06 01:36:35;;;;;;;12.63;9.75;;;18.20;99.40;;;;;;5050504;28;20082;-82
2023/09/06 01:39:01;;;;;;;11.57;9.32;;;18.30;99.50;;;;;;5029823;28;20041;-81
2023/09/06 01:41:27;;;;;;;10.57;9.48;;;18.20;99.60;;;;;;5043823;28;20132;-81
2023/09/06 01:43:54;;;;;;;10.75;9.65;;;18.20;99.70;;;;;;5008791;28;20052;-83
2023/09/06 01:46:22;;;;;;;12.57;9.68;;;18.20;99.80;;;;;;5014847;28;20056;-82
2023/09/06 01:48:48;;;;;;;10.63;9.50;;;18.20;99.90;;;;;;5014493;28;20142;-82
2023/09/06 01:51:15;;;;;;;10.88;9.65;;;18.20;99.90;;;;;;5006979;28;20119;-83
2023/09/06 01:53:42;;;;;;;11.63;9.73;;;18.20;99.90;;;;;;5012761;28;20102;-82
2023/09/06 01:56:08;;;;;;;9.82;8.73;;;18.10;99.90;;;;;;5009186;28;20056;-82
2023/09/06 01:58:37;;;;;;;11.05;9.18;;;18.10;99.90;;;;;;5026853;28;20052;-83
2023/09/06 02:01:04;;;;;;;11.05;9.00;;;18.10;99.90;;;;;;4990739;28;20134;-82
2023/09/06 02:03:34;;;;;;;13.45;10.13;;;18.10;99.90;;;;;;5029470;28;20043;-82
2023/09/06 02:06:06;;;;;;;11.15;9.38;;;18.10;99.90;;;;;;5012235;28;20048;-83
2023/09/06 02:08:32;;;;;;;11.80;9.23;;;18.10;99.90;;;;;;5030462;28;20487;-83
2023/09/06 02:10:57;;;;;;;13.35;10.27;;;18.00;99.90;;;;;;5036763;28;20056;-81
2023/09/06 02:13:23;;;;;;;10.93;9.60;;;18.00;99.90;;;;;;5032943;28;20044;-82
2023/09/06 02:15:49;;;;;;;11.05;9.88;;;18.00;99.90;;;;;;5015894;28;20063;-83
2023/09/06 02:18:15;;;;;;;10.95;9.68;;;18.00;99.90;;;;;;5017293;28;20047;-83
2023/09/06 02:20:45;;;;;;;10.68;9.02;;;17.90;99.90;;;;;;5025444;28;20515;-82
2023/09/06 02:23:11;;;;;;;11.63;9.88;;;17.90;99.90;;;;;;5026374;28;20403;-82
2023/09/06 02:25:37;;;;;;;11.68;10.48;;;17.90;99.90;;;;;;5011354;28;20048;-82
2023/09/06 02:28:07;;;;;;;12.55;9.85;;;17.90;99.90;;;;;;5047192;28;20506;-82
2023/09/06 02:30:36;;;;;;;14.68;10.75;;;17.90;99.90;;;;;;5031929;28;20045;-82
2023/09/06 02:33:04;;;;;;;11.30;9.95;;;17.90;99.90;;;;;;5036796;28;20491;-81
2023/09/06 02:35:30;;;;;;;11.80;10.10;;;17.90;99.90;;;;;;5032212;28;20159;-82
2023/09/06 02:37:56;;;;;;;12.55;10.85;;;17.80;99.90;;;;;;5036773;28;20036;-82
2023/09/06 02:40:22;;;;;;;11.98;10.60;;;17.80;99.90;;;;;;5028114;28;22229;-82
2023/09/06 02:42:51;;;;;;;11.90;9.93;;;17.80;99.90;;;;;;5036598;28;20126;-83
2023/09/06 02:45:17;;;;;;;14.48;10.75;;;17.70;99.90;;;;;;5030406;28;20142;-82
2023/09/06 02:47:50;;;;;;;12.30;10.63;;;17.70;99.90;;;;;;5035074;28;21440;-82
2023/09/06 02:50:18;;;;;;;12.35;10.23;;;17.70;99.90;;;;;;5028861;28;20049;-83
2023/09/06 02:52:47;;;;;;;12.93;11.25;;;17.60;99.90;;;;;;5033135;28;20049;-81
2023/09/06 02:55:14;;;;;;;13.55;10.38;;;17.60;99.90;;;;;;5009538;28;20040;-82
2023/09/06 02:57:41;;;;;;;13.82;10.30;;;17.60;99.90;;;;;;5034672;28;20218;-82
2023/09/06 03:00:18;;;;;;;12.30;11.00;;;17.60;99.90;;;;;;5031274;28;20048;-82
2023/09/06 03:02:46;;;;;;;11.57;10.38;;;17.60;99.90;;;;;;5030248;28;22508;-82
2023/09/06 03:05:17;;;;;;;13.45;10.77;;;17.50;99.90;;;;;;5026129;28;20054;-83
2023/09/06 03:07:50;;;;;;;12.45;11.13;;;17.50;99.90;;;;;;5036174;28;20127;-81
2023/09/06 03:10:19;;;;;;;14.70;11.70;;;17.50;99.90;;;;;;5029689;28;20117;-81
2023/09/06 03:12:54;;;;;;;12.13;10.80;;;17.50;99.90;;;;;;5028037;28;20183;-82
2023/09/06 03:15:22;;;;;;;15.48;11.93;;;17.50;99.90;;;;;;5032542;28;20069;-81
2023/09/06 03:17:53;;;;;;;12.13;10.73;;;17.50;99.90;;;;;;5033741;28;20109;-79
2023/09/06 03:20:20;;;;;;;12.35;11.00;;;17.40;99.90;;;;;;5019864;28;20052;-82
2023/09/06 03:22:47;;;;;;;12.55;10.75;;;17.40;99.90;;;;;;5035205;28;21666;-81
2023/09/06 03:25:15;;;;;;;14.35;11.30;;;17.40;99.90;;;;;;5031167;28;20044;-81
2023/09/06 03:27:42;;;;;;;12.18;10.60;;;17.30;99.90;;;;;;5033217;28;20051;-82
2023/09/06 03:30:09;;;;;;;13.35;10.13;;;17.30;99.90;;;;;;5014045;28;20506;-80
2023/09/06 03:32:35;;;;;;;13.38;10.93;;;17.30;99.90;;;;;;5026291;28;20045;-80
2023/09/06 03:35:04;;;;;;;13.50;11.25;;;17.30;99.90;;;;;;5020546;28;20242;-79
2023/09/06 03:37:30;;;;;;;12.02;10.57;;;17.20;99.90;;;;;;5007876;28;20041;-80
2023/09/06 03:39:56;;;;;;;14.73;11.05;;;17.20;99.90;;;;;;5027352;28;20406;-84
2023/09/06 03:42:23;;;;;;;12.93;11.48;;;17.20;99.90;;;;;;5033758;28;21377;-83
2023/09/06 03:44:49;;;;;;;12.77;11.40;;;17.20;99.90;;;;;;4983030;28;20144;-83
2023/09/06 03:47:16;;;;;;;12.55;10.45;;;17.10;99.90;;;;;;5039774;28;20056;-83
2023/09/06 03:49:43;;;;;;;11.85;10.57;;;17.10;99.90;;;;;;5029140;28;20044;-83
2023/09/06 03:52:10;;;;;;;12.23;9.88;;;17.10;99.90;;;;;;5030076;28;20056;-84
2023/09/06 03:54:36;;;;;;;14.40;10.45;;;17.10;99.90;;;;;;5047397;28;20041;-82
2023/09/06 03:57:07;;;;;;;14.88;10.75;;;17.00;99.90;;;;;;5027024;28;20056;-82
2023/09/06 03:59:35;;;;;;;14.73;11.25;;;17.00;99.90;;;;;;5027517;28;20055;-84
2023/09/06 04:02:02;;;;;;;13.10;10.60;;;17.00;99.90;;;;;;5014833;28;20064;-83
2023/09/06 04:04:29;;;;;;;11.88;10.65;;;17.00;99.90;;;;;;5008145;28;20478;-84
2023/09/06 04:06:55;;;;;;;11.30;10.10;;;17.00;99.90;;;;;;5024892;28;20059;-85
2023/09/06 04:09:27;;;;;;;10.98;9.82;;;16.90;99.90;;;;;;5030920;28;20060;-82
2023/09/06 04:11:54;;;;;;;13.68;10.38;;;16.90;99.90;;;;;;5013129;28;20486;-83
2023/09/06 04:14:23;;;;;;;11.63;9.85;;;16.90;99.90;;;;;;5014163;28;20044;-82
2023/09/06 04:16:49;;;;;;;11.55;9.88;;;16.90;99.90;;;;;;5012347;28;20399;-83
2023/09/06 04:19:15;;;;;;;11.80;9.70;;;16.80;99.90;;;;;;5014300;28;20597;-82
2023/09/06 04:21:41;;;;;;;11.25;10.05;;;16.80;99.90;;;;;;5013780;28;20064;-82
2023/09/06 04:24:10;;;;;;;12.20;9.15;;;16.80;99.90;;;;;;5009692;28;20051;-83
2023/09/06 04:26:38;;;;;;;10.52;9.50;;;16.80;99.90;;;;;;5030003;28;20326;-78
2023/09/06 04:29:05;;;;;;;12.23;9.90;;;16.70;99.90;;;;;;5014218;28;20444;-82
2023/09/06 04:31:32;;;;;;;12.10;9.43;;;16.70;99.90;;;;;;5008389;28;20574;-81
2023/09/06 04:33:58;;;;;;;11.35;10.02;;;16.70;99.90;;;;;;5012580;28;20048;-83
2023/09/06 04:36:25;;;;;;;10.50;9.40;;;16.70;99.90;;;;;;5010074;28;20168;-82
2023/09/06 04:38:51;;;;;;;11.25;9.05;;;16.60;99.90;;;;;;5027496;28;20052;-79
2023/09/06 04:41:16;;;;;;;11.45;9.35;;;16.60;99.90;;;;;;5016325;28;20097;-78
2023/09/06 04:43:42;;;;;;;11.00;9.85;;;16.60;99.90;;;;;;5030797;28;20068;-79
2023/09/06 04:46:08;;;;;;;10.10;9.05;;;16.60;99.90;;;;;;5023433;28;20040;-79
2023/09/06 04:48:34;;;;;;;9.98;8.98;;;16.50;99.90;;;;;;5029538;28;20292;-79
2023/09/06 04:50:59;;;;;;;10.93;8.90;;;16.50;99.90;;;;;;5041024;28;20041;-79
2023/09/06 04:53:25;;;;;;;10.38;9.10;;;16.50;99.90;;;;;;5006788;28;20410;-79
2023/09/06 04:55:52;;;;;;;12.18;8.68;;;16.50;99.90;;;;;;5013929;28;20281;-79
2023/09/06 04:58:19;;;;;;;12.93;8.98;;;16.50;99.90;;;;;;5005627;28;20164;-79
2023/09/06 05:00:47;;;;;;;10.75;8.27;;;16.50;99.90;;;;;;5024776;28;20178;-79
2023/09/06 05:03:17;;;;;;;9.45;8.07;;;16.50;99.90;;;;;;5026686;28;20037;-78
2023/09/06 05:05:45;;;;;;;9.82;8.77;;;16.40;99.90;;;;;;5026400;28;20573;-78
2023/09/06 05:08:11;;;;;;;10.30;8.10;;;16.40;99.90;;;;;;5025850;28;20041;-79
2023/09/06 05:10:39;;;;;;;10.45;8.43;;;16.80;99.90;;;;;;5029136;28;20114;-78
2023/09/06 05:13:07;;;;;;;9.18;7.93;;;16.40;99.90;;;;;;5026759;28;20137;-78
2023/09/06 05:15:37;;;;;;;9.45;8.38;;;16.40;99.90;;;;;;5025447;28;20151;-78
2023/09/06 05:18:05;;;;;;;10.13;8.98;;;16.30;99.90;;;;;;5044741;28;20142;-78
2023/09/06 05:20:37;;;;;;;11.48;8.27;;;16.40;99.90;;;;;;5026354;28;20361;-78
2023/09/06 05:23:08;;;;;;;9.48;7.85;;;16.40;99.90;;;;;;5011838;28;20870;-77
2023/09/06 05:25:35;;;;;;;8.82;7.65;;;16.40;99.90;;;;;;5027675;28;20064;-78
2023/09/06 05:28:03;;;;;;;9.88;8.02;;;16.40;99.90;;;;;;4988016;28;20041;-78
2023/09/06 05:30:30;;;;;;;10.68;7.93;;;16.40;99.90;;;;;;5029716;28;20125;-79
2023/09/06 05:32:56;;;;;;;9.38;7.60;;;16.30;99.90;;;;;;5010389;28;20056;-79
2023/09/06 05:35:23;;;;;;;8.52;7.65;;;16.40;99.90;;;;;;5034670;28;20049;-76
2023/09/06 05:37:50;;;;;;;10.75;7.88;;;16.30;99.90;;;;;;5026608;28;20086;-80
2023/09/06 05:40:22;;;;;;;11.77;9.05;;;16.40;99.90;;;;;;5031826;28;20043;-80
2023/09/06 05:42:49;;;;;;;8.40;7.38;;;16.40;99.90;;;;;;5014365;28;20328;-80
2023/09/06 05:45:15;;;;;;;10.48;7.95;;;16.40;99.90;;;;;;5033143;28;20052;-80
2023/09/06 05:47:41;;;;;;;8.90;8.00;;;16.40;99.90;;;;;;5034180;28;20048;-80
2023/09/06 05:50:07;;;;;;;8.95;7.78;;;16.40;99.90;;;;;;5030944;28;20742;-79
2023/09/06 05:52:33;;;;;;;9.88;7.78;;;16.40;99.90;;;;;;5033346;28;20364;-80
2023/09/06 05:55:00;;;;;;;9.13;8.13;;;16.40;99.90;;;;;;5049961;28;20099;-80
2023/09/06 05:57:25;;;;;;;8.88;7.97;;;16.50;99.90;;;;;;5017168;28;20543;-80
2023/09/06 05:59:51;;;;;;;8.93;8.02;;;16.50;99.90;;;;;;5034893;28;20053;-80
2023/09/06 06:02:17;;;;;;;15.50;8.10;;;16.50;99.90;;;;;;5016102;28;20780;-80
2023/09/06 06:04:46;;;;;;;9.02;7.18;;;16.50;99.90;;;;;;5034713;28;20054;-80
2023/09/06 06:07:16;;;;;;;9.23;7.95;;;16.50;99.90;;;;;;5010094;28;20059;-78
2023/09/06 06:09:42;;;;;;;9.65;7.63;;;16.50;99.90;;;;;;5014739;28;20462;-80
2023/09/06 06:12:10;;;;;;;8.70;6.70;;;16.60;99.90;;;;;;5034258;28;20064;-80
2023/09/06 06:14:36;;;;;;;9.13;7.20;;;16.60;99.90;;;;;;5034031;28;20407;-80
2023/09/06 06:17:06;;;;;;;11.48;6.95;;;16.60;99.90;;;;;;5019991;28;20052;-79
2023/09/06 06:19:33;;;;;;;9.90;7.93;;;16.70;99.90;;;;;;5052398;28;20047;-80
2023/09/06 06:22:04;;;;;;;8.73;7.70;;;16.70;99.90;;;;;;5037712;28;20057;-79
2023/09/06 06:24:33;;;;;;;10.32;8.20;;;16.80;99.90;;;;;;5049328;28;20072;-79
2023/09/06 06:26:59;;;;;;;9.95;7.88;;;16.90;99.90;;;;;;5040882;28;20333;-79
2023/09/06 06:29:25;;;;;;;12.73;8.60;;;17.00;99.90;;;;;;5037597;28;20395;-79
2023/09/06 06:31:52;;;;;;;9.80;8.27;;;17.10;99.90;;;;;;5017135;28;20048;-81
2023/09/06 06:34:18;;;;;;;10.43;8.52;;;17.10;99.90;;;;;;5043422;28;20107;-81
2023/09/06 06:36:47;;;;;;;9.52;8.23;;;17.10;99.90;;;;;;5018706;28;20517;-78
2023/09/06 06:39:14;;;;;;;11.90;8.70;;;17.30;99.90;;;;;;5038408;28;20429;-78
2023/09/06 06:41:42;;;;;;;10.15;8.43;;;17.40;99.90;;;;;;5041193;28;20488;-80
2023/09/06 06:44:08;;;;;;;12.15;8.98;;;17.40;99.90;;;;;;5041503;28;20167;-79
2023/09/06 06:46:38;;;;;;;9.45;8.48;;;17.60;99.90;;;;;;5057281;28;20037;-80
2023/09/06 06:49:07;;;;;;;10.73;8.48;;;17.60;99.90;;;;;;5020804;28;20040;-78
2023/09/06 06:51:38;;;;;;;11.52;8.30;;;17.70;99.90;;;;;;5022946;28;20540;-79
2023/09/06 06:54:09;;;;;;;10.10;8.13;;;17.80;99.90;;;;;;5019016;28;20262;-80
2023/09/06 06:56:36;;;;;;;10.98;8.20;;;18.00;99.90;;;;;;5036694;28;20222;-79
2023/09/06 06:59:03;;;;;;;9.85;8.55;;;18.10;99.90;;;;;;5038556;28;20442;-80
2023/09/06 07:01:30;;;;;;;13.27;8.65;;;18.20;99.90;;;;;;5035907;28;20063;-80
2023/09/06 07:03:57;;;;;;;9.65;8.35;;;18.70;99.90;;;;;;5037157;28;20053;-79
2023/09/06 07:06:24;;;;;;;13.38;8.32;;;18.50;99.90;;;;;;5035049;28;20039;-82
2023/09/06 07:08:51;;;;;;;11.18;8.00;;;18.70;99.90;;;;;;5005405;28;20056;-79
2023/09/06 07:11:17;;;;;;;10.02;7.63;;;18.90;99.90;;;;;;5037419;28;20040;-80
2023/09/06 07:13:46;;;;;;;9.80;7.78;;;19.00;99.90;;;;;;5039840;28;20376;-79
2023/09/06 07:16:13;;;;;;;10.23;7.85;;;19.20;99.90;;;;;;5037937;28;20045;-79
2023/09/06 07:18:38;;;;;;;13.60;7.40;;;19.40;99.90;;;;;;5022119;28;20813;-80
2023/09/06 07:21:04;;;;;;;9.65;7.38;;;19.50;99.90;;;;;;5052477;28;20113;-80
2023/09/06 07:23:30;;;;;;;9.60;7.40;;;19.70;99.90;;;;;;5053316;28;20133;-80
2023/09/06 07:25:56;;;;;;;9.48;6.63;;;19.90;99.90;;;;;;5020989;28;20045;-78
2023/09/06 07:28:23;;;;;;;10.75;6.70;;;20.10;99.90;;;;;;5055025;28;20048;-80
2023/09/06 07:30:49;;;;;;;9.18;6.93;;;20.30;99.90;;;;;;5032658;28;20457;-79
2023/09/06 07:33:16;;;;;;;8.57;6.68;;;20.50;99.90;;;;;;5020337;28;20048;-80
2023/09/06 07:35:42;;;;;;;9.48;6.78;;;20.60;99.90;;;;;;5051314;28;20045;-79
2023/09/06 07:38:08;;;;;;;7.60;6.63;;;20.80;99.90;;;;;;5034930;28;20044;-81
2023/09/06 07:40:34;;;;;;;8.35;6.40;;;21.00;99.60;;;;;;5030268;28;20055;-81
2023/09/06 07:43:00;;;;;;;9.65;7.47;;;21.20;99.10;;;;;;5004704;28;20040;-80
2023/09/06 07:45:26;;;;;;;8.45;6.10;;;21.40;98.70;;;;;;5038134;28;20427;-78
2023/09/06 07:47:52;;;;;;;9.15;6.15;;;21.60;98.20;;;;;;5054927;28;20471;-80
2023/09/06 07:50:18;;;;;;;9.25;6.05;;;21.80;97.50;;;;;;5041691;28;20052;-81
2023/09/06 07:52:45;;;;;;;9.90;6.00;;;22.00;96.80;;;;;;5009778;28;20125;-79
2023/09/06 07:55:15;;;;;;;6.22;5.60;;;22.20;96.20;;;;;;5039174;28;20383;-79
2023/09/06 07:57:41;;;;;;;10.15;6.05;;;22.40;95.50;;;;;;5037647;28;20095;-78
2023/09/06 08:00:07;;;;;;;7.40;5.90;;;22.60;94.60;;;;;;5062037;28;20048;-79
2023/09/06 08:02:33;;;;;;;7.38;5.72;;;22.90;93.80;;;;;;5023765;28;20215;-80
2023/09/06 08:04:59;;;;;;;7.57;6.10;;;23.10;92.90;;;;;;5041461;28;20119;-80
2023/09/06 08:07:24;;;;;;;8.55;6.25;;;23.20;91.80;;;;;;5057673;28;20128;-79
2023/09/06 08:09:50;;;;;;;8.18;5.97;;;23.40;91.10;;;;;;5041079;28;20039;-79
2023/09/06 08:12:17;;;;;;;8.15;5.82;;;23.50;90.20;;;;;;5003954;28;20040;-79
2023/09/06 08:14:43;;;;;;;8.38;5.70;;;23.80;89.20;;;;;;5035555;28;20560;-80
2023/09/06 08:17:10;;;;;;;6.20;5.60;;;23.70;87.50;;;;;;5041324;28;20422;-80
2023/09/06 08:19:36;;;;;;;7.88;6.50;;;24.20;85.40;;;;;;5050369;28;20040;-80
2023/09/06 08:22:02;;;;;;;9.60;6.13;;;24.50;82.90;;;;;;5024192;28;20060;-80
2023/09/06 08:24:30;;;;;;;8.63;5.90;;;24.70;81.00;;;;;;5036194;28;20776;-79
2023/09/06 08:26:56;;;;;;;7.63;6.00;;;24.90;79.00;;;;;;5028678;28;20036;-80
2023/09/06 08:29:22;;;;;;;12.23;6.30;;;25.10;76.50;;;;;;5028775;28;20059;-79
2023/09/06 08:31:48;;;;;;;8.02;6.10;;;25.30;75.00;;;;;;5060377;28;20062;-80
2023/09/06 08:34:14;;;;;;;14.77;6.72;;;25.50;72.90;;;;;;5027610;28;20091;-78
2023/09/06 08:36:39;;;;;;;9.07;6.10;;;25.60;70.40;;;;;;5041503;28;20671;-80
2023/09/06 08:39:06;;;;;;;9.70;6.00;;;25.80;69.00;;;;;;5027351;28;20036;-78
2023/09/06 08:41:33;;;;;;;9.63;6.75;;;26.00;67.00;;;;;;5047552;28;20143;-80
2023/09/06 08:44:03;;;;;;;9.80;5.93;;;26.10;65.40;;;;;;5047063;28;20116;-79
2023/09/06 08:46:38;;;;;;;9.27;6.60;;;26.40;63.50;;;;;;5029652;28;20082;-80
2023/09/06 08:49:04;;;;;;;7.30;5.83;;;26.60;60.80;;;;;;5048961;28;20077;-80
2023/09/06 08:51:35;;;;;;;8.13;6.35;;;26.70;59.80;;;;;;5047621;28;20040;-79
2023/09/06 08:54:05;;;;;;;10.55;7.00;;;26.90;56.50;;;;;;5042387;28;20504;-79
2023/09/06 08:56:32;;;;;;;8.63;6.55;;;27.00;53.50;;;;;;5049283;28;20076;-80
2023/09/06 08:58:59;;;;;;;12.70;6.75;;;27.10;51.50;;;;;;5045481;28;20052;-80
2023/09/06 09:01:25;;;;;;;9.15;6.80;;;27.20;49.70;;;;;;5043480;28;20061;-80
2023/09/06 09:03:51;;;;;;;12.10;7.20;;;27.30;47.80;;;;;;5041628;28;20049;-80
2023/09/06 09:06:17;;;;;;;14.98;7.82;;;27.40;45.20;;;;;;5027837;28;20709;-80
2023/09/06 09:08:43;;;;;;;12.07;8.32;;;27.50;43.50;;;;;;5043458;28;20083;-80
2023/09/06 09:11:13;;;;;;;15.82;8.88;;;27.70;42.50;;;;;;5059663;28;20063;-80
2023/09/06 09:13:40;;;;;;;18.77;9.63;;;27.90;38.60;;;;;;5044547;28;20040;-80
2023/09/06 09:16:11;;;;;;;13.48;9.38;;;28.00;36.30;;;;;;5038227;28;20146;-80
2023/09/06 09:18:38;;;;;;;12.65;9.30;;;28.30;31.80;;;;;;5036107;28;20087;-78
2023/09/06 09:21:07;;;;;;;15.00;10.52;;;28.40;30.50;;;;;;5028118;28;20045;-78
2023/09/06 09:23:40;;;;;;;15.05;11.05;;;28.60;25.10;;;;;;5028514;28;20079;-79
2023/09/06 09:26:08;;;;;;;16.75;10.60;;;28.50;21.10;;;;;;5043847;28;20119;-77
2023/09/06 09:28:35;;;;;;;15.52;11.02;;;28.50;20.20;;;;;;5031381;28;20342;-77
2023/09/06 09:31:01;;;;;;;15.80;11.40;;;28.60;20.60;;;;;;5032948;28;20048;-78
2023/09/06 09:33:28;;;;;;;18.27;12.30;;;28.80;20.40;;;;;;5037864;28;20056;-80
2023/09/06 09:35:55;;;;;;;17.95;11.98;;;29.00;16.70;;;;;;5031232;28;20108;-78
2023/09/06 09:38:21;;;;;;;16.42;11.73;;;29.10;11.90;;;;;;5029809;28;20321;-79
2023/09/06 09:41:05;;;;;;;17.08;12.43;;;29.20;11.40;;;;;;5030606;28;20077;-78
2023/09/06 09:43:31;;;;;;;16.75;11.45;;;29.20;1.40;;;;;;5019924;28;20109;-77
2023/09/06 09:45:57;;;;;;;17.30;11.05;;;29.30;6.20;;;;;;5010817;28;20043;-77
2023/09/06 09:48:31;;;;;;;17.58;11.55;;;29.40;1.00;;;;;;5019120;28;20045;-76
2023/09/06 09:50:58;;;;;;;21.33;12.27;;;29.50;1.00;;;;;;5032550;28;20048;-76
2023/09/06 09:53:24;;;;;;;16.25;11.63;;;29.70;1.00;;;;;;5020564;28;20090;-76
2023/09/06 09:55:54;;;;;;;19.08;12.15;;;29.90;1.00;;;;;;5031546;28;20053;-76
2023/09/06 09:58:21;;;;;;;21.15;12.70;;;30.10;1.00;;;;;;5028409;28;20099;-76
2023/09/06 10:00:50;;;;;;;16.17;10.35;;;30.30;1.00;;;;;;5053923;28;20056;-76
2023/09/06 10:03:16;;;;;;;14.93;10.90;;;30.40;1.00;;;;;;5037641;28;20044;-76
2023/09/06 10:05:43;;;;;;;14.10;9.38;;;30.70;1.00;;;;;;5018429;28;20044;-76
2023/09/06 10:08:10;;;;;;;16.58;10.25;;;30.60;1.00;;;;;;5034031;28;20055;-76
2023/09/06 10:10:42;;;;;;;15.32;10.13;;;30.60;1.00;;;;;;5012636;28;20048;-76
2023/09/06 10:13:08;;;;;;;13.35;9.18;;;30.70;1.00;;;;;;4997699;28;20044;-76
2023/09/06 10:15:35;;;;;;;15.32;9.55;;;30.70;1.00;;;;;;5020251;28;20044;-76
2023/09/06 10:18:01;;;;;;;12.60;8.82;;;30.70;1.00;;;;;;5037402;28;20388;-75
2023/09/06 10:20:30;;;;;;;14.93;8.43;;;30.80;1.00;;;;;;5040397;28;20036;-76
2023/09/06 10:22:59;;;;;;;12.52;8.35;;;30.80;1.00;;;;;;5042908;28;20068;-76
2023/09/06 10:25:26;;;;;;;14.43;8.60;;;30.70;1.00;;;;;;5034386;28;20511;-76
2023/09/06 10:27:56;;;;;;;11.07;7.40;;;30.80;1.00;;;;;;5027757;28;20121;-77
2023/09/06 10:30:44;;;;;;;11.02;6.78;;;31.00;1.00;;;;;;5041484;28;20044;-78
2023/09/06 10:33:32;;;;;;;11.88;7.30;;;31.30;1.00;;;;;;5035809;28;20078;-77
2023/09/06 10:36:02;;;;;;;10.23;5.55;;;31.40;1.00;;;;;;5033185;28;20056;-77
2023/09/06 10:38:30;;;;;;;9.05;4.97;;;31.40;1.00;;;;;;5039573;28;20055;-77
2023/09/06 10:40:56;;;;;;;7.18;4.88;;;31.60;1.00;;;;;;5030682;28;20084;-77
2023/09/06 10:43:43;;;;;;;5.78;4.50;;;31.60;1.00;;;;;;5061530;28;20126;-77
2023/09/06 10:46:08;;;;;;;4.60;2.97;;;31.60;1.00;;;;;;5047225;28;20383;-78
2023/09/06 10:48:36;;;;;;;5.20;3.67;;;31.90;1.00;;;;;;5045598;28;20483;-77
2023/09/06 10:51:06;;;;;;;4.00;3.00;;;31.90;99.90;;;;;;5055671;28;20059;-77
2023/09/06 10:53:39;;;;;;;5.28;3.20;;;31.90;99.90;;;;;;5023892;28;20063;-77
2023/09/06 10:56:06;;;;;;;5.47;2.90;;;31.90;99.90;;;;;;5039292;28;20075;-77
2023/09/06 10:58:36;;;;;;;6.70;3.00;;;31.90;99.90;;;;;;5003901;28;20388;-77
2023/09/06 11:01:17;;;;;;;5.72;2.97;;;32.10;99.90;;;;;;5044424;28;20072;-77
2023/09/06 11:03:54;;;;;;;5.47;3.10;;;32.20;99.90;;;;;;5043808;28;20056;-77
2023/09/06 11:06:21;;;;;;;5.22;2.75;;;32.30;99.90;;;;;;5046442;28;20063;-77
2023/09/06 11:08:47;;;;;;;4.07;2.90;;;32.20;99.90;;;;;;5043062;28;20389;-77
2023/09/06 11:11:14;;;;;;;4.45;2.95;;;32.30;99.90;;;;;;5045731;28;20100;-77
2023/09/06 11:13:42;;;;;;;6.63;3.20;;;32.40;90.90;;;;;;5041713;28;20055;-77
2023/09/06 11:16:15;;;;;;;4.38;2.72;;;32.40;1.00;;;;;;5062790;28;20577;-77
2023/09/06 11:18:46;;;;;;;6.07;3.15;;;32.60;1.00;;;;;;5045121;28;20044;-77
2023/09/06 11:21:19;;;;;;;4.20;2.70;;;32.70;99.90;;;;;;5029293;28;20083;-77
2023/09/06 11:23:49;;;;;;;6.43;3.00;;;32.80;99.90;;;;;;5043735;28;20048;-77
2023/09/06 11:26:16;;;;;;;5.10;2.58;;;32.90;99.90;;;;;;5046042;28;20052;-78
2023/09/06 11:28:43;;;;;;;4.65;2.80;;;33.00;99.90;;;;;;5028567;28;20055;-76
2023/09/06 11:31:29;;;;;;;4.68;2.60;;;33.20;20.40;;;;;;5065634;28;20062;-77
2023/09/06 11:34:04;;;;;;;3.60;2.60;;;33.40;1.00;;;;;;5043877;28;20096;-77
2023/09/06 11:36:32;;;;;;;5.80;3.50;;;33.50;99.90;;;;;;5044061;28;20059;-77
2023/09/06 11:39:07;;;;;;;4.63;2.60;;;33.70;99.90;;;;;;5044271;28;20056;-77
2023/09/06 11:41:35;;;;;;;;;;;33.90;99.90;;;;;;5032841;28;20060;-77
2023/09/06 11:44:07;;;;;;;3.72;2.42;;;34.00;99.90;;;;;;5048903;28;19935;-77
2023/09/06 11:46:36;;;;;;;5.50;3.40;;;33.90;99.90;;;;;;5031816;28;20394;-76
2023/09/06 11:49:04;;;;;;;5.95;2.92;;;34.00;1.00;;;;;;5033454;28;20045;-77
2023/09/06 11:51:32;;;;;;;3.85;2.40;;;33.80;99.90;;;;;;5006133;28;20044;-77
2023/09/06 11:54:00;;;;;;;6.00;2.55;;;33.90;99.90;;;;;;5045312;28;20083;-77
2023/09/06 11:56:36;;;;;;;3.75;1.70;;;33.90;99.90;;;;;;5019201;28;20113;-76
2023/09/06 11:59:06;;;;;;;5.10;2.58;;;33.90;1.00;;;;;;5041189;28;20050;-78
2023/09/06 12:01:40;;;;;;;9.57;2.03;;;33.90;99.90;;;;;;5035950;28;20040;-76
2023/09/06 12:04:15;;;;;;;3.90;1.63;;;34.00;1.00;;;;;;5040110;28;20079;-77
2023/09/06 12:06:42;;;;;;;4.55;1.80;;;34.00;1.00;;;;;;5052349;28;20059;-77
2023/09/06 12:09:15;;;;;;;4.13;2.00;;;34.10;99.90;;;;;;5019185;28;20052;-75
2023/09/06 12:11:41;;;;;;;4.97;2.20;;;34.10;99.90;;;;;;5027351;28;20108;-76
2023/09/06 12:14:15;;;;;;;3.17;1.58;;;34.10;99.90;;;;;;5044089;28;20044;-78
2023/09/06 12:16:41;;;;;;;3.72;2.05;;;34.20;99.90;;;;;;5041563;28;20056;-76
2023/09/06 12:19:12;;;;;;;5.28;2.17;;;34.30;99.90;;;;;;5029836;28;20106;-77
2023/09/06 12:21:38;;;;;;;3.72;2.00;;;34.30;99.90;;;;;;5022019;28;20057;-77
2023/09/06 12:24:04;;;;;;;4.25;1.98;;;34.20;99.90;;;;;;5029785;28;20461;-77
2023/09/06 12:26:30;;;;;;;4.28;2.00;;;34.40;99.90;;;;;;5052802;28;20036;-77
2023/09/06 12:28:56;;;;;;;3.13;1.75;;;34.50;99.90;;;;;;5015154;28;20060;-77
2023/09/06 12:31:22;;;;;;;4.78;1.98;;;34.60;99.90;;;;;;5024416;28;20056;-76
2023/09/06 12:33:51;;;;;;;4.10;1.83;;;34.80;99.90;;;;;;5024020;28;20531;-77
2023/09/06 12:36:18;;;;;;;2.20;1.38;;;35.00;70.20;;;;;;5042491;28;20506;-77
2023/09/06 12:38:44;;;;;;;4.82;1.80;;;35.30;1.00;;;;;;5041519;28;20611;-76
2023/09/06 12:41:11;;;;;;;4.05;1.92;;;35.40;1.00;;;;;;5048161;28;20131;-77
2023/09/06 12:43:37;;;;;;;3.42;1.92;;;35.50;99.90;;;;;;5037973;28;20595;-77
2023/09/06 12:46:06;;;;;;;3.92;1.80;;;35.50;99.90;;;;;;5048108;28;20045;-76